sensor_id;sensor_type;location;lat;lon;timestamp;P1;durP1;ratioP1;P2;durP2;ratioP2
18576;SDS011;9418;52.694;13.294;2023-08-17T00:01:32;5.50;;;2.70;;
18576;SDS011;9418;52.694;13.294;2023-08-17T00:03:59;4.37;;;1.93;;
18576;SDS011;9418;52.694;13.294;2023-08-17T00:06:25;4.57;;;2.20;;
18576;SDS011;9418;52.694;13.294;2023-08-17T00:08:52;5.20;;;2.40;;
18576;SDS011;9418;52.694;13.294;2023-08-17T00:11:19;4.47;;;2.20;;
18576;SDS011;9418;52.694;13.294;2023-08-17T00:13:46;4.70;;;2.50;;
18576;SDS011;9418;52.694;13.294;2023-08-17T00:16:13;7.10;;;2.67;;
18576;SDS011;9418;52.694;13.294;2023-08-17T00:18:40;5.57;;;2.43;;
18576;SDS011;9418;52.694;13.294;2023-08-17T00:21:06;5.97;;;2.30;;
18576;SDS011;9418;52.694;13.294;2023-08-17T00:23:33;3.53;;;2.30;;
18576;SDS011;9418;52.694;13.294;2023-08-17T00:26:00;6.47;;;2.73;;
18576;SDS011;9418;52.694;13.294;2023-08-17T00:28:26;6.00;;;2.40;;
18576;SDS011;9418;52.694;13.294;2023-08-17T00:30:54;8.27;;;2.77;;
18576;SDS011;9418;52.694;13.294;2023-08-17T00:33:21;6.00;;;2.67;;
18576;SDS011;9418;52.694;13.294;2023-08-17T00:35:47;5.20;;;2.43;;
18576;SDS011;9418;52.694;13.294;2023-08-17T00:38:14;5.03;;;2.63;;
18576;SDS011;9418;52.694;13.294;2023-08-17T00:40:40;6.30;;;2.30;;
18576;SDS011;9418;52.694;13.294;2023-08-17T00:43:07;9.87;;;2.50;;
18576;SDS011;9418;52.694;13.294;2023-08-17T00:45:34;4.80;;;2.27;;
18576;SDS011;9418;52.694;13.294;2023-08-17T00:48:02;4.87;;;2.10;;
18576;SDS011;9418;52.694;13.294;2023-08-17T00:50:32;4.57;;;2.60;;
18576;SDS011;9418;52.694;13.294;2023-08-17T00:53:00;5.53;;;2.53;;
18576;SDS011;9418;52.694;13.294;2023-08-17T00:55:27;2.53;;;2.07;;
18576;SDS011;9418;52.694;13.294;2023-08-17T00:57:55;5.20;;;2.17;;
18576;SDS011;9418;52.694;13.294;2023-08-17T01:00:22;4.23;;;2.10;;
18576;SDS011;9418;52.694;13.294;2023-08-17T01:02:50;7.30;;;2.70;;
18576;SDS011;9418;52.694;13.294;2023-08-17T01:05:19;4.73;;;2.40;;
18576;SDS011;9418;52.694;13.294;2023-08-17T01:07:45;4.90;;;2.07;;
18576;SDS011;9418;52.694;13.294;2023-08-17T01:10:12;3.43;;;2.10;;
18576;SDS011;9418;52.694;13.294;2023-08-17T01:12:42;4.60;;;2.30;;
18576;SDS011;9418;52.694;13.294;2023-08-17T01:15:14;10.67;;;3.20;;
18576;SDS011;9418;52.694;13.294;2023-08-17T01:17:46;4.80;;;2.20;;
18576;SDS011;9418;52.694;13.294;2023-08-17T01:20:21;3.83;;;2.63;;
18576;SDS011;9418;52.694;13.294;2023-08-17T01:22:50;4.83;;;2.40;;
18576;SDS011;9418;52.694;13.294;2023-08-17T01:25:23;5.17;;;2.27;;
18576;SDS011;9418;52.694;13.294;2023-08-17T01:27:49;5.93;;;2.57;;
18576;SDS011;9418;52.694;13.294;2023-08-17T01:30:16;4.57;;;2.80;;
18576;SDS011;9418;52.694;13.294;2023-08-17T01:32:44;7.90;;;2.40;;
18576;SDS011;9418;52.694;13.294;2023-08-17T01:35:18;4.57;;;2.33;;
18576;SDS011;9418;52.694;13.294;2023-08-17T01:37:50;9.80;;;3.07;;
18576;SDS011;9418;52.694;13.294;2023-08-17T01:40:18;6.70;;;2.40;;
18576;SDS011;9418;52.694;13.294;2023-08-17T01:42:47;4.60;;;2.13;;
18576;SDS011;9418;52.694;13.294;2023-08-17T01:45:15;3.17;;;1.87;;
18576;SDS011;9418;52.694;13.294;2023-08-17T01:47:42;7.03;;;2.50;;
18576;SDS011;9418;52.694;13.294;2023-08-17T01:50:09;7.07;;;2.30;;
18576;SDS011;9418;52.694;13.294;2023-08-17T01:52:35;9.70;;;2.70;;
18576;SDS011;9418;52.694;13.294;2023-08-17T01:55:02;3.83;;;1.90;;
18576;SDS011;9418;52.694;13.294;2023-08-17T01:57:29;4.17;;;2.30;;
18576;SDS011;9418;52.694;13.294;2023-08-17T01:59:57;8.63;;;2.40;;
18576;SDS011;9418;52.694;13.294;2023-08-17T02:02:23;7.40;;;1.70;;
18576;SDS011;9418;52.694;13.294;2023-08-17T02:04:50;3.83;;;2.23;;
18576;SDS011;9418;52.694;13.294;2023-08-17T02:07:16;6.87;;;1.90;;
18576;SDS011;9418;52.694;13.294;2023-08-17T02:09:43;4.40;;;2.17;;
18576;SDS011;9418;52.694;13.294;2023-08-17T02:12:09;5.93;;;2.00;;
18576;SDS011;9418;52.694;13.294;2023-08-17T02:14:36;3.43;;;1.67;;
18576;SDS011;9418;52.694;13.294;2023-08-17T02:17:04;4.07;;;2.13;;
18576;SDS011;9418;52.694;13.294;2023-08-17T02:19:30;5.70;;;2.10;;
18576;SDS011;9418;52.694;13.294;2023-08-17T02:21:57;4.30;;;2.17;;
18576;SDS011;9418;52.694;13.294;2023-08-17T02:24:24;6.30;;;2.30;;
18576;SDS011;9418;52.694;13.294;2023-08-17T02:26:50;9.00;;;3.13;;
18576;SDS011;9418;52.694;13.294;2023-08-17T02:29:16;3.77;;;1.70;;
18576;SDS011;9418;52.694;13.294;2023-08-17T02:31:43;2.40;;;1.80;;
18576;SDS011;9418;52.694;13.294;2023-08-17T02:34:10;6.00;;;2.33;;
18576;SDS011;9418;52.694;13.294;2023-08-17T02:36:37;6.00;;;2.00;;
18576;SDS011;9418;52.694;13.294;2023-08-17T02:39:04;7.43;;;2.60;;
18576;SDS011;9418;52.694;13.294;2023-08-17T02:41:30;2.90;;;1.73;;
18576;SDS011;9418;52.694;13.294;2023-08-17T02:43:57;3.13;;;1.50;;
18576;SDS011;9418;52.694;13.294;2023-08-17T02:46:24;4.23;;;1.57;;
18576;SDS011;9418;52.694;13.294;2023-08-17T02:48:50;2.47;;;1.63;;
18576;SDS011;9418;52.694;13.294;2023-08-17T02:51:19;3.27;;;1.77;;
18576;SDS011;9418;52.694;13.294;2023-08-17T02:53:45;6.00;;;2.13;;
18576;SDS011;9418;52.694;13.294;2023-08-17T02:56:12;2.17;;;1.60;;
18576;SDS011;9418;52.694;13.294;2023-08-17T02:58:39;9.20;;;1.50;;
18576;SDS011;9418;52.694;13.294;2023-08-17T03:01:06;3.27;;;1.70;;
18576;SDS011;9418;52.694;13.294;2023-08-17T03:03:32;4.70;;;2.00;;
18576;SDS011;9418;52.694;13.294;2023-08-17T03:05:59;4.60;;;1.80;;
18576;SDS011;9418;52.694;13.294;2023-08-17T03:08:27;4.50;;;1.93;;
18576;SDS011;9418;52.694;13.294;2023-08-17T03:10:53;5.33;;;1.47;;
18576;SDS011;9418;52.694;13.294;2023-08-17T03:13:20;12.13;;;1.90;;
18576;SDS011;9418;52.694;13.294;2023-08-17T03:15:46;3.13;;;1.87;;
18576;SDS011;9418;52.694;13.294;2023-08-17T03:18:13;6.13;;;1.87;;
18576;SDS011;9418;52.694;13.294;2023-08-17T03:20:39;4.67;;;1.73;;
18576;SDS011;9418;52.694;13.294;2023-08-17T03:23:06;7.10;;;1.90;;
18576;SDS011;9418;52.694;13.294;2023-08-17T03:25:34;2.57;;;2.00;;
18576;SDS011;9418;52.694;13.294;2023-08-17T03:28:01;3.03;;;1.60;;
18576;SDS011;9418;52.694;13.294;2023-08-17T03:30:27;3.03;;;1.40;;
18576;SDS011;9418;52.694;13.294;2023-08-17T03:32:54;8.10;;;1.63;;
18576;SDS011;9418;52.694;13.294;2023-08-17T03:35:20;1.67;;;1.50;;
18576;SDS011;9418;52.694;13.294;2023-08-17T03:37:47;3.40;;;1.80;;
18576;SDS011;9418;52.694;13.294;2023-08-17T03:40:14;3.00;;;1.77;;
18576;SDS011;9418;52.694;13.294;2023-08-17T03:42:41;3.40;;;1.70;;
18576;SDS011;9418;52.694;13.294;2023-08-17T03:45:08;3.73;;;1.60;;
18576;SDS011;9418;52.694;13.294;2023-08-17T03:47:35;4.20;;;1.40;;
18576;SDS011;9418;52.694;13.294;2023-08-17T03:50:01;7.43;;;1.73;;
18576;SDS011;9418;52.694;13.294;2023-08-17T03:52:28;2.43;;;1.47;;
18576;SDS011;9418;52.694;13.294;2023-08-17T03:54:54;2.17;;;1.30;;
18576;SDS011;9418;52.694;13.294;2023-08-17T03:57:21;5.17;;;1.50;;
18576;SDS011;9418;52.694;13.294;2023-08-17T03:59:49;5.07;;;1.50;;
18576;SDS011;9418;52.694;13.294;2023-08-17T04:02:15;1.90;;;1.47;;
18576;SDS011;9418;52.694;13.294;2023-08-17T04:04:42;4.93;;;1.80;;
18576;SDS011;9418;52.694;13.294;2023-08-17T04:07:08;4.07;;;1.60;;
18576;SDS011;9418;52.694;13.294;2023-08-17T04:09:35;5.80;;;1.57;;
18576;SDS011;9418;52.694;13.294;2023-08-17T04:12:02;4.37;;;1.73;;
18576;SDS011;9418;52.694;13.294;2023-08-17T04:14:29;2.53;;;1.47;;
18576;SDS011;9418;52.694;13.294;2023-08-17T04:16:57;2.67;;;1.50;;
18576;SDS011;9418;52.694;13.294;2023-08-17T04:19:24;3.13;;;1.87;;
18576;SDS011;9418;52.694;13.294;2023-08-17T04:21:50;2.80;;;1.67;;
18576;SDS011;9418;52.694;13.294;2023-08-17T04:24:17;3.43;;;1.33;;
18576;SDS011;9418;52.694;13.294;2023-08-17T04:26:43;2.73;;;1.57;;
18576;SDS011;9418;52.694;13.294;2023-08-17T04:29:10;1.50;;;1.20;;
18576;SDS011;9418;52.694;13.294;2023-08-17T04:31:37;2.13;;;1.60;;
18576;SDS011;9418;52.694;13.294;2023-08-17T04:34:04;6.30;;;2.00;;
18576;SDS011;9418;52.694;13.294;2023-08-17T04:36:31;3.70;;;1.40;;
18576;SDS011;9418;52.694;13.294;2023-08-17T04:38:57;3.63;;;1.60;;
18576;SDS011;9418;52.694;13.294;2023-08-17T04:41:24;5.93;;;1.63;;
18576;SDS011;9418;52.694;13.294;2023-08-17T04:43:51;2.67;;;1.40;;
18576;SDS011;9418;52.694;13.294;2023-08-17T04:46:17;5.23;;;1.60;;
18576;SDS011;9418;52.694;13.294;2023-08-17T04:48:44;12.90;;;1.70;;
18576;SDS011;9418;52.694;13.294;2023-08-17T04:51:12;2.07;;;1.70;;
18576;SDS011;9418;52.694;13.294;2023-08-17T04:53:39;5.20;;;1.87;;
18576;SDS011;9418;52.694;13.294;2023-08-17T04:56:06;2.50;;;1.53;;
18576;SDS011;9418;52.694;13.294;2023-08-17T04:58:32;1.80;;;1.60;;
18576;SDS011;9418;52.694;13.294;2023-08-17T05:00:59;3.53;;;2.30;;
18576;SDS011;9418;52.694;13.294;2023-08-17T05:03:25;3.80;;;1.60;;
18576;SDS011;9418;52.694;13.294;2023-08-17T05:05:52;4.40;;;2.17;;
18576;SDS011;9418;52.694;13.294;2023-08-17T05:08:20;4.73;;;1.80;;
18576;SDS011;9418;52.694;13.294;2023-08-17T05:10:47;3.47;;;2.00;;
18576;SDS011;9418;52.694;13.294;2023-08-17T05:13:13;5.03;;;1.50;;
18576;SDS011;9418;52.694;13.294;2023-08-17T05:15:40;3.70;;;1.90;;
18576;SDS011;9418;52.694;13.294;2023-08-17T05:18:07;3.03;;;1.63;;
18576;SDS011;9418;52.694;13.294;2023-08-17T05:20:34;3.20;;;1.77;;
18576;SDS011;9418;52.694;13.294;2023-08-17T05:23:00;3.03;;;1.60;;
18576;SDS011;9418;52.694;13.294;2023-08-17T05:25:28;3.40;;;1.27;;
18576;SDS011;9418;52.694;13.294;2023-08-17T05:27:55;4.13;;;1.50;;
18576;SDS011;9418;52.694;13.294;2023-08-17T05:30:21;2.50;;;1.43;;
18576;SDS011;9418;52.694;13.294;2023-08-17T05:32:48;6.10;;;1.50;;
18576;SDS011;9418;52.694;13.294;2023-08-17T05:35:15;4.20;;;1.70;;
18576;SDS011;9418;52.694;13.294;2023-08-17T05:37:41;2.30;;;1.90;;
18576;SDS011;9418;52.694;13.294;2023-08-17T05:40:08;2.47;;;1.70;;
18576;SDS011;9418;52.694;13.294;2023-08-17T05:42:37;4.27;;;1.97;;
18576;SDS011;9418;52.694;13.294;2023-08-17T05:45:03;3.40;;;1.80;;
18576;SDS011;9418;52.694;13.294;2023-08-17T05:47:31;2.57;;;1.67;;
18576;SDS011;9418;52.694;13.294;2023-08-17T05:49:57;7.60;;;2.10;;
18576;SDS011;9418;52.694;13.294;2023-08-17T05:52:24;2.70;;;2.00;;
18576;SDS011;9418;52.694;13.294;2023-08-17T05:54:50;2.23;;;1.60;;
18576;SDS011;9418;52.694;13.294;2023-08-17T05:57:17;5.43;;;1.90;;
18576;SDS011;9418;52.694;13.294;2023-08-17T05:59:45;4.00;;;1.97;;
18576;SDS011;9418;52.694;13.294;2023-08-17T06:02:11;2.13;;;1.50;;
18576;SDS011;9418;52.694;13.294;2023-08-17T06:04:38;2.70;;;1.80;;
18576;SDS011;9418;52.694;13.294;2023-08-17T06:07:04;2.60;;;1.70;;
18576;SDS011;9418;52.694;13.294;2023-08-17T06:09:31;2.60;;;2.00;;
18576;SDS011;9418;52.694;13.294;2023-08-17T06:11:58;2.50;;;1.60;;
18576;SDS011;9418;52.694;13.294;2023-08-17T06:14:24;3.80;;;1.80;;
18576;SDS011;9418;52.694;13.294;2023-08-17T06:16:52;2.40;;;1.40;;
18576;SDS011;9418;52.694;13.294;2023-08-17T06:19:19;8.43;;;2.13;;
18576;SDS011;9418;52.694;13.294;2023-08-17T06:21:45;4.83;;;1.80;;
18576;SDS011;9418;52.694;13.294;2023-08-17T06:24:12;2.50;;;1.70;;
18576;SDS011;9418;52.694;13.294;2023-08-17T06:26:38;3.10;;;1.53;;
18576;SDS011;9418;52.694;13.294;2023-08-17T06:29:05;3.23;;;1.60;;
18576;SDS011;9418;52.694;13.294;2023-08-17T06:31:31;4.90;;;2.07;;
18576;SDS011;9418;52.694;13.294;2023-08-17T06:33:59;12.43;;;3.10;;
18576;SDS011;9418;52.694;13.294;2023-08-17T06:36:29;6.27;;;2.10;;
18576;SDS011;9418;52.694;13.294;2023-08-17T06:38:56;6.57;;;1.97;;
18576;SDS011;9418;52.694;13.294;2023-08-17T06:41:23;5.43;;;1.80;;
18576;SDS011;9418;52.694;13.294;2023-08-17T06:43:49;6.20;;;1.77;;
18576;SDS011;9418;52.694;13.294;2023-08-17T06:46:16;2.60;;;1.50;;
18576;SDS011;9418;52.694;13.294;2023-08-17T06:48:43;6.10;;;1.90;;
18576;SDS011;9418;52.694;13.294;2023-08-17T06:51:11;6.00;;;1.70;;
18576;SDS011;9418;52.694;13.294;2023-08-17T06:53:37;11.10;;;1.80;;
18576;SDS011;9418;52.694;13.294;2023-08-17T06:56:04;5.57;;;2.10;;
18576;SDS011;9418;52.694;13.294;2023-08-17T06:58:30;3.73;;;1.87;;
18576;SDS011;9418;52.694;13.294;2023-08-17T07:00:57;3.70;;;1.77;;
18576;SDS011;9418;52.694;13.294;2023-08-17T07:03:23;3.10;;;1.97;;
18576;SDS011;9418;52.694;13.294;2023-08-17T07:05:50;3.60;;;2.20;;
18576;SDS011;9418;52.694;13.294;2023-08-17T07:08:18;3.00;;;1.70;;
18576;SDS011;9418;52.694;13.294;2023-08-17T07:10:44;4.50;;;1.90;;
18576;SDS011;9418;52.694;13.294;2023-08-17T07:13:11;7.90;;;2.47;;
18576;SDS011;9418;52.694;13.294;2023-08-17T07:15:37;3.83;;;2.10;;
18576;SDS011;9418;52.694;13.294;2023-08-17T07:18:04;4.97;;;2.27;;
18576;SDS011;9418;52.694;13.294;2023-08-17T07:20:31;4.27;;;2.60;;
18576;SDS011;9418;52.694;13.294;2023-08-17T07:22:57;5.70;;;1.93;;
18576;SDS011;9418;52.694;13.294;2023-08-17T07:25:25;4.60;;;1.70;;
18576;SDS011;9418;52.694;13.294;2023-08-17T07:27:52;6.83;;;1.70;;
18576;SDS011;9418;52.694;13.294;2023-08-17T07:30:18;2.97;;;1.83;;
18576;SDS011;9418;52.694;13.294;2023-08-17T07:32:45;2.70;;;1.90;;
18576;SDS011;9418;52.694;13.294;2023-08-17T07:35:11;2.90;;;1.80;;
18576;SDS011;9418;52.694;13.294;2023-08-17T07:37:38;4.97;;;1.57;;
18576;SDS011;9418;52.694;13.294;2023-08-17T07:40:05;5.37;;;1.97;;
18576;SDS011;9418;52.694;13.294;2023-08-17T07:42:34;3.63;;;1.93;;
18576;SDS011;9418;52.694;13.294;2023-08-17T07:45:02;2.60;;;1.50;;
18576;SDS011;9418;52.694;13.294;2023-08-17T07:47:31;3.00;;;1.63;;
18576;SDS011;9418;52.694;13.294;2023-08-17T07:49:57;2.97;;;2.00;;
18576;SDS011;9418;52.694;13.294;2023-08-17T07:52:24;4.70;;;1.93;;
18576;SDS011;9418;52.694;13.294;2023-08-17T07:54:50;3.90;;;1.73;;
18576;SDS011;9418;52.694;13.294;2023-08-17T07:57:17;4.03;;;2.10;;
18576;SDS011;9418;52.694;13.294;2023-08-17T07:59:45;3.83;;;1.77;;
18576;SDS011;9418;52.694;13.294;2023-08-17T08:02:11;4.83;;;1.60;;
18576;SDS011;9418;52.694;13.294;2023-08-17T08:04:38;4.17;;;2.20;;
18576;SDS011;9418;52.694;13.294;2023-08-17T08:07:05;1.90;;;1.70;;
18576;SDS011;9418;52.694;13.294;2023-08-17T08:09:32;2.83;;;1.63;;
18576;SDS011;9418;52.694;13.294;2023-08-17T08:11:58;4.77;;;1.67;;
18576;SDS011;9418;52.694;13.294;2023-08-17T08:14:25;5.90;;;1.87;;
18576;SDS011;9418;52.694;13.294;2023-08-17T08:16:53;5.27;;;2.23;;
18576;SDS011;9418;52.694;13.294;2023-08-17T08:19:20;3.03;;;1.43;;
18576;SDS011;9418;52.694;13.294;2023-08-17T08:21:46;2.70;;;1.77;;
18576;SDS011;9418;52.694;13.294;2023-08-17T08:24:13;3.90;;;2.13;;
18576;SDS011;9418;52.694;13.294;2023-08-17T08:26:39;4.03;;;1.97;;
18576;SDS011;9418;52.694;13.294;2023-08-17T08:29:06;3.50;;;2.07;;
18576;SDS011;9418;52.694;13.294;2023-08-17T08:31:32;5.73;;;2.10;;
18576;SDS011;9418;52.694;13.294;2023-08-17T08:34:00;5.60;;;1.87;;
18576;SDS011;9418;52.694;13.294;2023-08-17T08:36:27;7.90;;;2.27;;
18576;SDS011;9418;52.694;13.294;2023-08-17T08:38:53;2.30;;;2.00;;
18576;SDS011;9418;52.694;13.294;2023-08-17T08:41:20;7.60;;;1.97;;
18576;SDS011;9418;52.694;13.294;2023-08-17T08:43:48;2.43;;;1.60;;
18576;SDS011;9418;52.694;13.294;2023-08-17T08:46:15;2.20;;;1.60;;
18576;SDS011;9418;52.694;13.294;2023-08-17T08:48:43;6.90;;;2.30;;
18576;SDS011;9418;52.694;13.294;2023-08-17T08:51:14;1.80;;;1.70;;
18576;SDS011;9418;52.694;13.294;2023-08-17T08:53:47;3.63;;;1.90;;
18576;SDS011;9418;52.694;13.294;2023-08-17T08:56:20;2.50;;;2.07;;
18576;SDS011;9418;52.694;13.294;2023-08-17T08:58:50;5.10;;;2.13;;
18576;SDS011;9418;52.694;13.294;2023-08-17T09:01:17;4.40;;;2.17;;
18576;SDS011;9418;52.694;13.294;2023-08-17T09:03:45;4.40;;;2.13;;
18576;SDS011;9418;52.694;13.294;2023-08-17T09:06:14;4.40;;;1.90;;
18576;SDS011;9418;52.694;13.294;2023-08-17T09:08:42;6.17;;;1.63;;
18576;SDS011;9418;52.694;13.294;2023-08-17T09:11:10;7.37;;;2.10;;
18576;SDS011;9418;52.694;13.294;2023-08-17T09:13:37;5.80;;;1.87;;
18576;SDS011;9418;52.694;13.294;2023-08-17T09:16:03;9.03;;;2.63;;
18576;SDS011;9418;52.694;13.294;2023-08-17T09:18:30;4.87;;;2.23;;
18576;SDS011;9418;52.694;13.294;2023-08-17T09:20:57;3.20;;;2.37;;
18576;SDS011;9418;52.694;13.294;2023-08-17T09:23:25;8.10;;;2.03;;
18576;SDS011;9418;52.694;13.294;2023-08-17T09:25:51;2.00;;;1.63;;
18576;SDS011;9418;52.694;13.294;2023-08-17T09:28:22;3.53;;;2.17;;
18576;SDS011;9418;52.694;13.294;2023-08-17T09:30:51;3.00;;;2.33;;
18576;SDS011;9418;52.694;13.294;2023-08-17T09:33:18;4.17;;;2.27;;
18576;SDS011;9418;52.694;13.294;2023-08-17T09:35:46;4.03;;;2.10;;
18576;SDS011;9418;52.694;13.294;2023-08-17T09:38:13;2.80;;;2.27;;
18576;SDS011;9418;52.694;13.294;2023-08-17T09:40:41;2.67;;;2.47;;
18576;SDS011;9418;52.694;13.294;2023-08-17T09:43:08;4.30;;;2.10;;
18576;SDS011;9418;52.694;13.294;2023-08-17T09:45:35;2.90;;;1.97;;
18576;SDS011;9418;52.694;13.294;2023-08-17T09:48:03;2.00;;;1.80;;
18576;SDS011;9418;52.694;13.294;2023-08-17T09:50:30;3.73;;;1.87;;
18576;SDS011;9418;52.694;13.294;2023-08-17T09:52:57;3.73;;;2.50;;
18576;SDS011;9418;52.694;13.294;2023-08-17T09:55:24;3.67;;;2.50;;
18576;SDS011;9418;52.694;13.294;2023-08-17T09:57:52;2.17;;;1.97;;
18576;SDS011;9418;52.694;13.294;2023-08-17T10:00:19;4.20;;;2.17;;
18576;SDS011;9418;52.694;13.294;2023-08-17T10:02:46;4.93;;;2.07;;
18576;SDS011;9418;52.694;13.294;2023-08-17T10:05:16;12.97;;;3.70;;
18576;SDS011;9418;52.694;13.294;2023-08-17T10:07:46;5.30;;;2.70;;
18576;SDS011;9418;52.694;13.294;2023-08-17T10:10:22;2.17;;;1.97;;
18576;SDS011;9418;52.694;13.294;2023-08-17T10:12:56;8.17;;;2.17;;
18576;SDS011;9418;52.694;13.294;2023-08-17T10:15:29;7.63;;;2.20;;
18576;SDS011;9418;52.694;13.294;2023-08-17T10:17:58;7.70;;;2.77;;
18576;SDS011;9418;52.694;13.294;2023-08-17T10:20:31;3.63;;;2.60;;
18576;SDS011;9418;52.694;13.294;2023-08-17T10:23:01;2.57;;;2.23;;
18576;SDS011;9418;52.694;13.294;2023-08-17T10:25:35;4.60;;;2.43;;
18576;SDS011;9418;52.694;13.294;2023-08-17T10:28:04;2.90;;;2.60;;
18576;SDS011;9418;52.694;13.294;2023-08-17T10:30:31;5.13;;;2.50;;
18576;SDS011;9418;52.694;13.294;2023-08-17T10:32:59;7.30;;;3.40;;
18576;SDS011;9418;52.694;13.294;2023-08-17T10:35:25;3.10;;;2.33;;
18576;SDS011;9418;52.694;13.294;2023-08-17T10:37:53;2.40;;;2.13;;
18576;SDS011;9418;52.694;13.294;2023-08-17T10:40:25;4.93;;;2.77;;
18576;SDS011;9418;52.694;13.294;2023-08-17T10:42:53;3.17;;;2.63;;
18576;SDS011;9418;52.694;13.294;2023-08-17T10:45:29;3.40;;;2.53;;
18576;SDS011;9418;52.694;13.294;2023-08-17T10:47:59;2.63;;;2.40;;
18576;SDS011;9418;52.694;13.294;2023-08-17T10:50:41;3.47;;;2.47;;
18576;SDS011;9418;52.694;13.294;2023-08-17T10:53:25;3.63;;;2.50;;
18576;SDS011;9418;52.694;13.294;2023-08-17T10:55:56;4.53;;;2.30;;
18576;SDS011;9418;52.694;13.294;2023-08-17T10:58:23;3.70;;;2.20;;
18576;SDS011;9418;52.694;13.294;2023-08-17T11:00:54;9.20;;;2.17;;
18576;SDS011;9418;52.694;13.294;2023-08-17T11:03:21;3.87;;;2.33;;
18576;SDS011;9418;52.694;13.294;2023-08-17T11:05:50;3.23;;;1.97;;
18576;SDS011;9418;52.694;13.294;2023-08-17T11:08:22;2.97;;;2.07;;
18576;SDS011;9418;52.694;13.294;2023-08-17T11:10:56;2.60;;;1.90;;
18576;SDS011;9418;52.694;13.294;2023-08-17T11:13:25;2.83;;;2.30;;
18576;SDS011;9418;52.694;13.294;2023-08-17T11:15:55;2.30;;;2.10;;
18576;SDS011;9418;52.694;13.294;2023-08-17T11:18:21;5.13;;;2.50;;
18576;SDS011;9418;52.694;13.294;2023-08-17T11:20:48;3.00;;;2.43;;
18576;SDS011;9418;52.694;13.294;2023-08-17T11:23:16;4.90;;;2.87;;
18576;SDS011;9418;52.694;13.294;2023-08-17T11:25:44;4.67;;;2.30;;
18576;SDS011;9418;52.694;13.294;2023-08-17T11:28:10;5.43;;;2.40;;
18576;SDS011;9418;52.694;13.294;2023-08-17T11:30:39;1.93;;;1.83;;
18576;SDS011;9418;52.694;13.294;2023-08-17T11:33:08;2.17;;;2.07;;
18576;SDS011;9418;52.694;13.294;2023-08-17T11:35:35;3.27;;;2.30;;
18576;SDS011;9418;52.694;13.294;2023-08-17T11:38:02;2.80;;;2.17;;
18576;SDS011;9418;52.694;13.294;2023-08-17T11:40:30;2.97;;;2.00;;
18576;SDS011;9418;52.694;13.294;2023-08-17T11:42:57;3.20;;;2.37;;
18576;SDS011;9418;52.694;13.294;2023-08-17T11:45:24;9.33;;;2.70;;
18576;SDS011;9418;52.694;13.294;2023-08-17T11:47:51;5.67;;;2.40;;
18576;SDS011;9418;52.694;13.294;2023-08-17T11:50:19;2.60;;;2.40;;
18576;SDS011;9418;52.694;13.294;2023-08-17T11:52:45;2.27;;;2.07;;
18576;SDS011;9418;52.694;13.294;2023-08-17T11:55:13;2.57;;;2.37;;
18576;SDS011;9418;52.694;13.294;2023-08-17T11:57:42;12.37;;;2.60;;
18576;SDS011;9418;52.694;13.294;2023-08-17T12:00:09;2.53;;;2.23;;
18576;SDS011;9418;52.694;13.294;2023-08-17T12:02:42;5.80;;;2.70;;
18576;SDS011;9418;52.694;13.294;2023-08-17T12:05:08;5.43;;;2.40;;
18576;SDS011;9418;52.694;13.294;2023-08-17T12:07:36;3.83;;;2.70;;
18576;SDS011;9418;52.694;13.294;2023-08-17T12:10:03;3.90;;;2.63;;
18576;SDS011;9418;52.694;13.294;2023-08-17T12:12:30;2.63;;;2.43;;
18576;SDS011;9418;52.694;13.294;2023-08-17T12:15:02;5.70;;;2.77;;
18576;SDS011;9418;52.694;13.294;2023-08-17T12:17:29;2.83;;;2.63;;
18576;SDS011;9418;52.694;13.294;2023-08-17T12:19:56;2.10;;;2.00;;
18576;SDS011;9418;52.694;13.294;2023-08-17T12:22:25;2.67;;;2.47;;
18576;SDS011;9418;52.694;13.294;2023-08-17T12:24:53;14.73;;;3.17;;
18576;SDS011;9418;52.694;13.294;2023-08-17T12:27:22;11.80;;;2.73;;
18576;SDS011;9418;52.694;13.294;2023-08-17T12:29:50;2.90;;;2.60;;
18576;SDS011;9418;52.694;13.294;2023-08-17T12:32:17;5.30;;;2.87;;
18576;SDS011;9418;52.694;13.294;2023-08-17T12:34:45;2.57;;;2.37;;
18576;SDS011;9418;52.694;13.294;2023-08-17T12:37:17;4.03;;;3.10;;
18576;SDS011;9418;52.694;13.294;2023-08-17T12:39:45;3.97;;;3.20;;
18576;SDS011;9418;52.694;13.294;2023-08-17T12:42:13;4.10;;;3.70;;
18576;SDS011;9418;52.694;13.294;2023-08-17T12:44:40;5.03;;;3.40;;
18576;SDS011;9418;52.694;13.294;2023-08-17T12:47:07;3.63;;;3.33;;
18576;SDS011;9418;52.694;13.294;2023-08-17T12:49:35;4.53;;;3.53;;
18576;SDS011;9418;52.694;13.294;2023-08-17T12:52:02;4.23;;;3.67;;
18576;SDS011;9418;52.694;13.294;2023-08-17T12:54:28;3.30;;;3.10;;
18576;SDS011;9418;52.694;13.294;2023-08-17T12:56:55;5.60;;;3.70;;
18576;SDS011;9418;52.694;13.294;2023-08-17T12:59:23;4.27;;;3.10;;
18576;SDS011;9418;52.694;13.294;2023-08-17T13:01:49;3.67;;;3.37;;
18576;SDS011;9418;52.694;13.294;2023-08-17T13:04:16;3.53;;;3.17;;
18576;SDS011;9418;52.694;13.294;2023-08-17T13:06:43;4.00;;;3.70;;
18576;SDS011;9418;52.694;13.294;2023-08-17T13:09:09;4.53;;;3.70;;
18576;SDS011;9418;52.694;13.294;2023-08-17T13:11:36;3.90;;;3.60;;
18576;SDS011;9418;52.694;13.294;2023-08-17T13:14:02;10.13;;;3.93;;
18576;SDS011;9418;52.694;13.294;2023-08-17T13:16:30;4.63;;;3.27;;
18576;SDS011;9418;52.694;13.294;2023-08-17T13:18:57;6.03;;;3.67;;
18576;SDS011;9418;52.694;13.294;2023-08-17T13:21:23;3.90;;;3.03;;
18576;SDS011;9418;52.694;13.294;2023-08-17T13:23:50;3.37;;;3.07;;
18576;SDS011;9418;52.694;13.294;2023-08-17T13:26:17;5.47;;;3.33;;
18576;SDS011;9418;52.694;13.294;2023-08-17T13:28:43;6.47;;;3.70;;
18576;SDS011;9418;52.694;13.294;2023-08-17T13:31:10;5.00;;;3.13;;
18576;SDS011;9418;52.694;13.294;2023-08-17T13:33:37;9.53;;;4.00;;
18576;SDS011;9418;52.694;13.294;2023-08-17T13:36:04;4.00;;;3.57;;
18576;SDS011;9418;52.694;13.294;2023-08-17T13:38:31;3.77;;;3.47;;
18576;SDS011;9418;52.694;13.294;2023-08-17T13:40:58;3.70;;;3.40;;
18576;SDS011;9418;52.694;13.294;2023-08-17T13:43:24;3.70;;;3.40;;
18576;SDS011;9418;52.694;13.294;2023-08-17T13:45:51;7.43;;;3.60;;
18576;SDS011;9418;52.694;13.294;2023-08-17T13:48:17;4.00;;;3.60;;
18576;SDS011;9418;52.694;13.294;2023-08-17T13:50:45;3.63;;;3.30;;
18576;SDS011;9418;52.694;13.294;2023-08-17T13:53:12;5.43;;;3.23;;
18576;SDS011;9418;52.694;13.294;2023-08-17T13:55:38;4.53;;;3.17;;
18576;SDS011;9418;52.694;13.294;2023-08-17T13:58:05;3.73;;;3.30;;
18576;SDS011;9418;52.694;13.294;2023-08-17T14:00:31;6.20;;;3.70;;
18576;SDS011;9418;52.694;13.294;2023-08-17T14:02:58;4.73;;;3.03;;
18576;SDS011;9418;52.694;13.294;2023-08-17T14:05:24;5.50;;;3.10;;
18576;SDS011;9418;52.694;13.294;2023-08-17T14:07:52;5.17;;;3.53;;
18576;SDS011;9418;52.694;13.294;2023-08-17T14:10:19;3.50;;;3.20;;
18576;SDS011;9418;52.694;13.294;2023-08-17T14:12:46;4.40;;;2.97;;
18576;SDS011;9418;52.694;13.294;2023-08-17T14:15:13;4.10;;;3.20;;
18576;SDS011;9418;52.694;13.294;2023-08-17T14:17:40;3.20;;;2.90;;
18576;SDS011;9418;52.694;13.294;2023-08-17T14:20:07;4.00;;;3.00;;
18576;SDS011;9418;52.694;13.294;2023-08-17T14:22:34;4.03;;;3.33;;
18576;SDS011;9418;52.694;13.294;2023-08-17T14:25:02;3.30;;;3.10;;
18576;SDS011;9418;52.694;13.294;2023-08-17T14:27:29;4.73;;;3.23;;
18576;SDS011;9418;52.694;13.294;2023-08-17T14:29:56;3.30;;;3.00;;
18576;SDS011;9418;52.694;13.294;2023-08-17T14:32:26;3.43;;;3.17;;
18576;SDS011;9418;52.694;13.294;2023-08-17T14:34:52;4.03;;;3.37;;
18576;SDS011;9418;52.694;13.294;2023-08-17T14:37:19;8.93;;;2.93;;
18576;SDS011;9418;52.694;13.294;2023-08-17T14:39:45;2.67;;;2.47;;
18576;SDS011;9418;52.694;13.294;2023-08-17T14:42:13;3.30;;;3.10;;
18576;SDS011;9418;52.694;13.294;2023-08-17T14:44:40;3.60;;;3.30;;
18576;SDS011;9418;52.694;13.294;2023-08-17T14:47:06;2.93;;;2.73;;
18576;SDS011;9418;52.694;13.294;2023-08-17T14:49:33;3.00;;;2.77;;